createdAt,value
2018-01-07T00:00:20.226Z,83.87
2018-01-07T00:01:22.681Z,83.53
2018-01-07T00:02:25.146Z,83.93
2018-01-07T00:03:27.614Z,83.71
2018-01-07T00:04:30.092Z,83.59
2018-01-07T00:05:32.574Z,83.92
2018-01-07T00:06:35.053Z,83.75
2018-01-07T00:07:37.553Z,83.90
2018-01-07T00:08:40.066Z,83.82
2018-01-07T00:09:42.533Z,83.80
2018-01-07T00:10:44.994Z,83.72
2018-01-07T00:11:48.073Z,83.81
2018-01-07T00:12:50.557Z,83.84
2018-01-07T00:13:53.032Z,83.85
2018-01-07T00:14:55.507Z,83.51
2018-01-07T00:15:57.967Z,83.56
2018-01-07T00:17:00.444Z,83.20
2018-01-07T00:18:02.925Z,83.26
2018-01-07T00:19:05.411Z,83.10
2018-01-07T00:20:07.873Z,83.40
2018-01-07T00:21:10.384Z,83.29
2018-01-07T00:22:12.860Z,83.62
2018-01-07T00:23:15.322Z,83.26
2018-01-07T00:24:17.799Z,83.18
2018-01-07T00:25:20.264Z,83.03
2018-01-07T00:26:22.744Z,82.73
2018-01-07T00:27:25.210Z,82.80
2018-01-07T00:28:27.670Z,82.81
2018-01-07T00:29:30.148Z,82.74
2018-01-07T00:30:32.609Z,82.54
2018-01-07T00:31:35.070Z,82.51
2018-01-07T00:32:37.534Z,82.68
2018-01-07T00:33:40.006Z,83.32
2018-01-07T00:34:42.482Z,82.93
2018-01-07T00:35:44.964Z,82.51
2018-01-07T00:36:47.558Z,82.27
2018-01-07T00:37:50.050Z,82.26
2018-01-07T00:38:52.512Z,82.28
2018-01-07T00:39:54.974Z,82.39
2018-01-07T00:40:57.439Z,82.51
2018-01-07T00:41:59.903Z,82.27
2018-01-07T00:43:02.369Z,82.34
2018-01-07T00:44:04.853Z,82.51
2018-01-07T00:45:07.315Z,82.53
2018-01-07T00:46:10.053Z,82.40
2018-01-07T00:47:12.519Z,82.46
2018-01-07T00:48:14.997Z,82.06
2018-01-07T00:49:17.494Z,82.13
2018-01-07T00:50:19.969Z,82.31
2018-01-07T00:51:22.438Z,82.57
2018-01-07T00:52:24.897Z,82.50
2018-01-07T00:53:27.371Z,82.49
2018-01-07T00:54:29.838Z,82.54
2018-01-07T00:55:32.303Z,82.87
2018-01-07T00:56:34.767Z,82.95
2018-01-07T00:57:37.326Z,82.62
2018-01-07T00:58:39.810Z,82.57
2018-01-07T00:59:42.270Z,82.75
2018-01-07T01:00:44.735Z,82.80
2018-01-07T01:01:47.219Z,82.86
2018-01-07T01:02:49.691Z,83.20
2018-01-07T01:03:52.150Z,83.34
2018-01-07T01:04:54.633Z,83.46
2018-01-07T01:05:57.114Z,83.22
2018-01-07T01:06:59.580Z,83.14
2018-01-07T01:08:02.102Z,83.18
2018-01-07T01:09:04.580Z,83.07
2018-01-07T01:10:07.062Z,83.42
2018-01-07T01:11:09.543Z,83.47
2018-01-07T01:12:12.026Z,83.27
2018-01-07T01:13:14.486Z,83.30
2018-01-07T01:14:16.947Z,83.28
2018-01-07T01:15:19.424Z,83.54
2018-01-07T01:16:21.885Z,83.39
2018-01-07T01:17:24.380Z,83.48
2018-01-07T01:18:26.884Z,83.78
2018-01-07T01:19:29.350Z,83.94
2018-01-07T01:20:31.849Z,84.26
2018-01-07T01:21:34.324Z,83.88
2018-01-07T01:22:36.820Z,84.17
2018-01-07T01:23:39.334Z,83.97
2018-01-07T01:24:41.796Z,84.40
2018-01-07T01:25:44.254Z,84.32
2018-01-07T01:26:46.719Z,84.30
2018-01-07T01:27:49.231Z,84.40
2018-01-07T01:28:51.742Z,84.62
2018-01-07T01:29:54.215Z,84.50
2018-01-07T01:30:56.754Z,84.90
2018-01-07T01:31:59.229Z,85.38
2018-01-07T01:33:01.710Z,85.12
2018-01-07T01:34:04.178Z,85.24
2018-01-07T01:35:06.655Z,85.18
2018-01-07T01:36:09.148Z,84.74
2018-01-07T01:37:11.610Z,84.53
2018-01-07T01:38:14.223Z,84.93
2018-01-07T01:39:16.792Z,85.05
2018-01-07T01:40:19.466Z,85.12
2018-01-07T01:41:21.942Z,85.14
2018-01-07T01:42:24.406Z,85.51
2018-01-07T01:43:28.472Z,85.18
2018-01-07T01:44:30.933Z,85.10
2018-01-07T01:45:33.469Z,85.10
2018-01-07T01:46:36.068Z,84.79
2018-01-07T01:47:38.869Z,85.01
2018-01-07T01:48:41.419Z,84.60
2018-01-07T01:49:43.901Z,84.85
2018-01-07T01:50:46.376Z,84.92
2018-01-07T01:51:48.848Z,85.34
2018-01-07T01:52:51.306Z,84.96
2018-01-07T01:53:53.843Z,84.77
2018-01-07T01:54:56.363Z,84.73
2018-01-07T01:55:58.841Z,84.67
2018-01-07T01:57:01.310Z,84.77
2018-01-07T01:58:03.789Z,84.68
2018-01-07T01:59:06.266Z,84.92
2018-01-07T02:00:08.774Z,84.93
2018-01-07T02:01:12.498Z,84.58
2018-01-07T02:02:15.024Z,84.58
2018-01-07T02:03:17.496Z,84.37
2018-01-07T02:04:19.979Z,84.49
2018-01-07T02:05:22.436Z,84.72
2018-01-07T02:06:24.917Z,84.55
2018-01-07T02:07:27.671Z,84.70
2018-01-07T02:08:30.225Z,84.51
2018-01-07T02:09:32.694Z,84.27
2018-01-07T02:10:35.188Z,84.41
2018-01-07T02:11:37.800Z,84.23
2018-01-07T02:12:40.396Z,84.11
2018-01-07T02:13:42.873Z,84.20
2018-01-07T02:14:45.488Z,84.21
2018-01-07T02:15:48.133Z,84.46
2018-01-07T02:16:50.874Z,84.25
2018-01-07T02:17:53.419Z,84.16
2018-01-07T02:18:55.879Z,84.30
2018-01-07T02:19:58.360Z,84.54
2018-01-07T02:21:00.840Z,84.44
2018-01-07T02:22:03.302Z,84.73
2018-01-07T02:23:05.780Z,84.42
2018-01-07T02:24:08.272Z,84.48
2018-01-07T02:25:10.752Z,84.51
2018-01-07T02:26:13.214Z,84.74
2018-01-07T02:27:15.692Z,84.74
2018-01-07T02:28:18.168Z,84.69
2018-01-07T02:29:20.643Z,84.32
2018-01-07T02:30:23.114Z,84.87
2018-01-07T02:31:25.610Z,84.50
2018-01-07T02:32:29.113Z,84.48
2018-01-07T02:33:31.602Z,84.79
2018-01-07T02:34:34.067Z,84.67
2018-01-07T02:35:36.540Z,84.42
2018-01-07T02:36:39.019Z,84.56
2018-01-07T02:37:41.522Z,84.54
2018-01-07T02:38:43.978Z,84.63
2018-01-07T02:39:46.469Z,84.44
2018-01-07T02:40:48.939Z,84.86
2018-01-07T02:41:51.403Z,84.60
2018-01-07T02:42:53.862Z,84.53
2018-01-07T02:43:56.318Z,84.87
2018-01-07T02:44:58.862Z,85.36
2018-01-07T02:46:01.330Z,84.42
2018-01-07T02:47:03.810Z,84.36
2018-01-07T02:48:06.267Z,84.56
2018-01-07T02:49:08.783Z,84.54
2018-01-07T02:50:11.264Z,84.70
2018-01-07T02:51:13.748Z,84.58
2018-01-07T02:52:16.220Z,85.15
2018-01-07T02:53:18.698Z,84.87
2018-01-07T02:54:21.171Z,84.62
2018-01-07T02:55:23.632Z,84.37
2018-01-07T02:56:26.113Z,84.40
2018-01-07T02:57:28.570Z,84.27
2018-01-07T02:58:31.045Z,84.23
2018-01-07T02:59:33.521Z,84.34
2018-01-07T03:00:35.974Z,84.55
2018-01-07T03:01:38.436Z,84.15
2018-01-07T03:02:40.910Z,83.97
2018-01-07T03:03:43.376Z,84.40
2018-01-07T03:04:45.830Z,84.35
2018-01-07T03:05:48.313Z,84.48
2018-01-07T03:06:50.774Z,84.30
2018-01-07T03:07:53.244Z,84.17
2018-01-07T03:08:55.875Z,84.20
2018-01-07T03:09:58.369Z,84.41
2018-01-07T03:11:00.840Z,84.42
2018-01-07T03:12:03.310Z,84.64
2018-01-07T03:13:05.777Z,84.45
2018-01-07T03:14:08.248Z,84.41
2018-01-07T03:15:10.720Z,84.01
2018-01-07T03:16:13.203Z,84.32
2018-01-07T03:17:15.847Z,84.39
2018-01-07T03:18:18.367Z,84.41
2018-01-07T03:19:21.665Z,84.12
2018-01-07T03:20:24.127Z,84.63
2018-01-07T03:21:26.629Z,84.53
2018-01-07T03:22:29.110Z,84.20
2018-01-07T03:23:31.572Z,84.33
2018-01-07T03:24:34.048Z,84.40
2018-01-07T03:25:36.522Z,84.76
2018-01-07T03:26:39.030Z,84.49
2018-01-07T03:27:41.477Z,84.41
2018-01-07T03:28:43.948Z,84.23
2018-01-07T03:29:46.419Z,84.37
2018-01-07T03:30:48.892Z,84.56
2018-01-07T03:31:51.379Z,84.30
2018-01-07T03:32:53.838Z,84.70
2018-01-07T03:33:56.308Z,84.34
2018-01-07T03:34:58.776Z,84.34
2018-01-07T03:36:01.232Z,84.30
2018-01-07T03:37:03.734Z,84.46
2018-01-07T03:38:06.215Z,84.21
2018-01-07T03:39:08.669Z,84.44
2018-01-07T03:40:11.136Z,84.27
2018-01-07T03:41:13.590Z,84.45
2018-01-07T03:42:16.069Z,84.07
2018-01-07T03:43:18.528Z,83.93
2018-01-07T03:44:20.986Z,83.98
2018-01-07T03:45:23.462Z,83.81
2018-01-07T03:46:25.962Z,83.81
2018-01-07T03:48:30.177Z,84.31
2018-01-07T03:49:32.641Z,84.03
2018-01-07T03:50:35.104Z,84.07
2018-01-07T03:51:37.564Z,83.92
2018-01-07T03:52:40.056Z,84.28
2018-01-07T03:53:42.530Z,83.78
2018-01-07T03:54:44.999Z,83.70
2018-01-07T03:55:47.454Z,83.79
2018-01-07T03:56:49.919Z,83.84
2018-01-07T03:57:52.394Z,84.06
2018-01-07T03:58:54.856Z,83.99
2018-01-07T03:59:57.311Z,83.82
2018-01-07T04:00:59.762Z,83.74
2018-01-07T04:02:02.237Z,83.22
2018-01-07T04:03:04.724Z,83.24
2018-01-07T04:04:07.196Z,83.50
2018-01-07T04:05:09.650Z,83.33
2018-01-07T04:06:12.124Z,83.47
2018-01-07T04:07:14.601Z,83.78
2018-01-07T04:08:17.090Z,83.33
2018-01-07T04:09:19.567Z,83.49
2018-01-07T04:10:22.022Z,82.99
2018-01-07T04:11:24.515Z,83.20
2018-01-07T04:12:26.970Z,83.03
2018-01-07T04:13:29.471Z,83.35
2018-01-07T04:14:31.926Z,83.21
2018-01-07T04:15:34.396Z,83.11
2018-01-07T04:16:36.854Z,83.42
2018-01-07T04:17:39.310Z,83.33
2018-01-07T04:18:41.780Z,83.27
2018-01-07T04:19:44.233Z,83.49
2018-01-07T04:20:46.684Z,83.42
2018-01-07T04:21:49.152Z,83.42
2018-01-07T04:22:51.606Z,83.39
2018-01-07T04:23:54.084Z,83.56
2018-01-07T04:24:56.534Z,83.22
2018-01-07T04:25:58.998Z,83.69
2018-01-07T04:27:01.473Z,83.64
2018-01-07T04:28:03.942Z,83.58
2018-01-07T04:29:06.394Z,83.36
2018-01-07T04:30:08.875Z,83.33
2018-01-07T04:31:11.334Z,83.33
2018-01-07T04:32:13.818Z,83.30
2018-01-07T04:33:16.288Z,83.30
2018-01-07T04:34:18.740Z,83.34
2018-01-07T04:35:21.190Z,83.18
2018-01-07T04:36:23.659Z,83.34
2018-01-07T04:37:26.115Z,83.45
2018-01-07T04:38:28.584Z,83.43
2018-01-07T04:39:31.038Z,83.21
2018-01-07T04:40:33.494Z,83.38
2018-01-07T04:41:35.984Z,83.40
2018-01-07T04:42:38.442Z,82.99
2018-01-07T04:43:40.922Z,82.67
2018-01-07T04:44:43.395Z,82.89
2018-01-07T04:45:45.865Z,83.02
2018-01-07T04:46:48.325Z,82.92
2018-01-07T04:47:50.774Z,83.10
2018-01-07T04:48:53.396Z,82.99
2018-01-07T04:49:55.863Z,82.98
2018-01-07T04:50:58.323Z,82.90
2018-01-07T04:52:00.774Z,83.03
2018-01-07T04:53:03.238Z,83.01
2018-01-07T04:54:05.752Z,82.73
2018-01-07T04:55:08.202Z,82.98
2018-01-07T04:56:10.666Z,82.82
2018-01-07T04:57:13.162Z,82.69
2018-01-07T04:58:15.688Z,82.96
2018-01-07T04:59:18.177Z,82.83
2018-01-07T05:00:20.675Z,82.97
2018-01-07T05:01:23.252Z,82.81
2018-01-07T05:02:25.760Z,82.70
2018-01-07T05:03:28.228Z,82.81
2018-01-07T05:04:30.700Z,82.68
2018-01-07T05:05:33.165Z,82.58
2018-01-07T05:06:35.681Z,82.87
2018-01-07T05:07:38.152Z,82.81
2018-01-07T05:08:40.680Z,82.65
2018-01-07T05:09:43.174Z,82.56
2018-01-07T05:10:45.769Z,82.59
2018-01-07T05:11:48.236Z,82.60
2018-01-07T05:12:50.686Z,82.54
2018-01-07T05:13:53.148Z,82.88
2018-01-07T05:14:55.634Z,82.82
2018-01-07T05:15:58.104Z,82.93
2018-01-07T05:17:00.576Z,82.88
2018-01-07T05:18:03.034Z,82.94
2018-01-07T05:19:05.587Z,83.03
2018-01-07T05:20:08.071Z,82.84
2018-01-07T05:21:10.554Z,82.82
2018-01-07T05:22:13.032Z,83.23
2018-01-07T05:23:15.482Z,82.78
2018-01-07T05:24:17.938Z,82.66
2018-01-07T05:25:20.417Z,82.89
2018-01-07T05:26:22.887Z,82.75
2018-01-07T05:27:25.348Z,82.78
2018-01-07T05:28:27.820Z,82.52
2018-01-07T05:29:30.288Z,82.49
2018-01-07T05:30:32.763Z,82.47
2018-01-07T05:31:35.240Z,82.47
2018-01-07T05:32:37.710Z,82.71
2018-01-07T05:33:40.162Z,82.74
2018-01-07T05:34:42.614Z,82.54
2018-01-07T05:35:45.100Z,82.25
2018-01-07T05:36:47.578Z,82.41
2018-01-07T05:37:50.045Z,82.41
2018-01-07T05:38:52.494Z,82.26
2018-01-07T05:39:54.961Z,82.17
2018-01-07T05:40:57.438Z,82.26
2018-01-07T05:41:59.924Z,82.53
2018-01-07T05:43:02.381Z,82.53
2018-01-07T05:44:04.848Z,82.22
2018-01-07T05:45:07.300Z,82.20
2018-01-07T05:46:09.778Z,82.32
2018-01-07T05:47:12.252Z,82.55
2018-01-07T05:48:14.705Z,82.26
2018-01-07T05:49:17.169Z,82.33
2018-01-07T05:50:19.637Z,82.27
2018-01-07T05:51:22.123Z,82.24
2018-01-07T05:52:24.593Z,82.30
2018-01-07T05:53:27.046Z,82.37
2018-01-07T05:54:29.489Z,82.38
2018-01-07T05:55:31.960Z,82.48
2018-01-07T05:56:34.454Z,82.67
2018-01-07T05:57:36.907Z,82.71
2018-01-07T05:58:39.372Z,82.76
2018-01-07T05:59:41.823Z,82.58
2018-01-07T06:00:44.274Z,82.55
2018-01-07T06:01:46.774Z,82.55
2018-01-07T06:02:49.235Z,82.60
2018-01-07T06:03:51.687Z,82.28
2018-01-07T06:04:54.154Z,82.17
2018-01-07T06:05:56.645Z,82.50
2018-01-07T06:06:59.117Z,82.30
2018-01-07T06:08:01.574Z,82.40
2018-01-07T06:09:04.044Z,82.50
2018-01-07T06:10:06.510Z,82.72
2018-01-07T06:11:08.979Z,82.72
2018-01-07T06:12:11.454Z,82.61
2018-01-07T06:13:13.916Z,82.63
2018-01-07T06:14:16.385Z,82.47
2018-01-07T06:15:18.836Z,82.56
2018-01-07T06:16:21.297Z,82.33
2018-01-07T06:17:23.770Z,82.35
2018-01-07T06:18:26.226Z,82.30
2018-01-07T06:19:28.678Z,82.15
2018-01-07T06:20:31.168Z,82.38
2018-01-07T06:21:33.643Z,82.45
2018-01-07T06:22:36.146Z,82.46
2018-01-07T06:23:38.614Z,82.32
2018-01-07T06:24:41.070Z,82.24
2018-01-07T06:25:43.540Z,81.88
2018-01-07T06:26:45.996Z,81.85
2018-01-07T06:27:48.506Z,82.33
2018-01-07T06:28:50.981Z,81.94
2018-01-07T06:29:53.448Z,81.96
2018-01-07T06:30:55.911Z,82.25
2018-01-07T06:31:58.426Z,82.35
2018-01-07T06:33:00.955Z,82.19
2018-01-07T06:34:03.406Z,82.08
2018-01-07T06:35:05.876Z,82.25
2018-01-07T06:36:08.358Z,82.03
2018-01-07T06:37:10.849Z,82.38
2018-01-07T06:38:13.320Z,82.29
2018-01-07T06:39:15.788Z,81.87
2018-01-07T06:40:18.262Z,81.98
2018-01-07T06:41:20.726Z,81.59
2018-01-07T06:42:23.196Z,82.09
2018-01-07T06:43:25.688Z,82.11
2018-01-07T06:44:28.218Z,82.16
2018-01-07T06:45:30.656Z,82.03
2018-01-07T06:46:33.124Z,82.21
2018-01-07T06:47:35.574Z,82.28
2018-01-07T06:48:38.068Z,82.26
2018-01-07T06:49:40.533Z,82.24
2018-01-07T06:50:43.005Z,81.89
2018-01-07T06:51:45.480Z,81.74
2018-01-07T06:52:47.954Z,81.72
2018-01-07T06:53:50.444Z,81.84
2018-01-07T06:54:52.909Z,81.74
2018-01-07T06:55:55.380Z,81.74
2018-01-07T06:56:57.830Z,81.77
2018-01-07T06:58:00.286Z,82.10
2018-01-07T06:59:02.776Z,82.27
2018-01-07T07:00:05.228Z,81.99
2018-01-07T07:01:07.701Z,81.85
2018-01-07T07:02:10.177Z,81.86
2018-01-07T07:03:12.649Z,81.55
2018-01-07T07:04:15.140Z,81.73
2018-01-07T07:05:17.594Z,81.79
2018-01-07T07:06:20.068Z,81.71
2018-01-07T07:07:22.523Z,81.53
2018-01-07T07:08:24.994Z,81.83
2018-01-07T07:09:27.519Z,81.68
2018-01-07T07:10:29.978Z,81.90
2018-01-07T07:11:32.435Z,81.82
2018-01-07T07:12:34.890Z,81.64
2018-01-07T07:13:37.350Z,81.67
2018-01-07T07:14:39.821Z,81.91
2018-01-07T07:15:42.274Z,81.86
2018-01-07T07:16:44.746Z,81.88
2018-01-07T07:17:47.198Z,81.58
2018-01-07T07:18:49.651Z,81.71
2018-01-07T07:19:52.116Z,81.46
2018-01-07T07:20:54.591Z,81.58
2018-01-07T07:21:57.112Z,81.72
2018-01-07T07:22:59.588Z,81.74
2018-01-07T07:24:02.044Z,81.81
2018-01-07T07:25:04.506Z,81.58
2018-01-07T07:26:06.968Z,81.38
2018-01-07T07:27:09.422Z,81.53
2018-01-07T07:28:11.873Z,81.09
2018-01-07T07:29:14.334Z,81.18
2018-01-07T07:30:16.812Z,81.25
2018-01-07T07:31:19.280Z,81.25
2018-01-07T07:32:21.734Z,80.92
2018-01-07T07:33:24.194Z,81.06
2018-01-07T07:34:26.664Z,81.14
2018-01-07T07:35:29.128Z,81.04
2018-01-07T07:36:31.588Z,80.85
2018-01-07T07:37:34.061Z,80.86
2018-01-07T07:38:36.532Z,80.95
2018-01-07T07:39:38.986Z,81.07
2018-01-07T07:40:41.451Z,81.28
2018-01-07T07:41:43.924Z,80.81
2018-01-07T07:42:46.386Z,80.84
2018-01-07T07:43:48.912Z,81.22
2018-01-07T07:44:51.382Z,81.30
2018-01-07T07:45:53.869Z,80.86
2018-01-07T07:46:56.322Z,80.84
2018-01-07T07:47:58.789Z,80.95
2018-01-07T07:49:01.259Z,80.89
2018-01-07T07:50:03.714Z,80.49
2018-01-07T07:51:06.188Z,80.91
2018-01-07T07:52:08.659Z,81.39
2018-01-07T07:53:11.127Z,80.89
2018-01-07T07:54:13.597Z,80.55
2018-01-07T07:55:16.056Z,80.57
2018-01-07T07:56:18.511Z,80.44
2018-01-07T07:57:21.083Z,80.27
2018-01-07T07:58:23.548Z,80.15
2018-01-07T07:59:26.013Z,80.38
2018-01-07T08:00:28.471Z,80.67
2018-01-07T08:01:30.958Z,80.45
2018-01-07T08:02:33.441Z,80.02
2018-01-07T08:03:35.914Z,80.27
2018-01-07T08:04:38.366Z,80.37
2018-01-07T08:05:40.837Z,80.04
2018-01-07T08:06:43.299Z,80.32
2018-01-07T08:07:45.769Z,80.01
2018-01-07T08:08:48.322Z,80.19
2018-01-07T08:09:50.778Z,80.29
2018-01-07T08:10:53.230Z,79.91
2018-01-07T08:11:55.697Z,80.13
2018-01-07T08:12:58.178Z,79.88
2018-01-07T08:14:00.640Z,79.83
2018-01-07T08:15:03.102Z,80.04
2018-01-07T08:16:05.573Z,80.25
2018-01-07T08:17:08.041Z,79.97
2018-01-07T08:18:10.497Z,79.75
2018-01-07T08:19:12.973Z,79.85
2018-01-07T08:20:15.448Z,79.84
2018-01-07T08:21:17.920Z,80.23
2018-01-07T08:22:20.384Z,79.74
2018-01-07T08:23:22.846Z,79.76
2018-01-07T08:24:25.302Z,79.80
2018-01-07T08:25:27.793Z,79.85
2018-01-07T08:26:30.246Z,79.83
2018-01-07T08:27:32.719Z,80.07
2018-01-07T08:28:35.189Z,79.47
2018-01-07T08:29:37.666Z,79.36
2018-01-07T08:30:40.137Z,79.31
2018-01-07T08:31:42.596Z,79.42
2018-01-07T08:32:45.068Z,79.28
2018-01-07T08:33:47.540Z,79.46
2018-01-07T08:34:50.027Z,79.44
2018-01-07T08:35:52.533Z,79.05
2018-01-07T08:36:55.000Z,79.13
2018-01-07T08:37:57.468Z,79.15
2018-01-07T08:38:59.940Z,79.04
2018-01-07T08:40:02.441Z,78.61
2018-01-07T08:41:04.921Z,78.49
2018-01-07T08:42:07.391Z,78.11
2018-01-07T08:43:09.939Z,78.36
2018-01-07T08:44:12.423Z,78.44
2018-01-07T08:45:14.881Z,78.50
2018-01-07T08:46:17.348Z,78.22
2018-01-07T08:47:19.874Z,78.47
2018-01-07T08:48:22.352Z,78.25
2018-01-07T08:49:24.802Z,78.27
2018-01-07T08:50:27.273Z,78.21
2018-01-07T08:51:29.740Z,77.96
2018-01-07T08:52:32.198Z,78.24
2018-01-07T08:53:34.688Z,77.79
2018-01-07T08:54:37.138Z,77.48
2018-01-07T08:55:39.594Z,77.66
2018-01-07T08:56:42.105Z,77.32
2018-01-07T08:57:44.555Z,78.23
2018-01-07T08:58:47.007Z,77.83
2018-01-07T08:59:49.458Z,76.69
2018-01-07T09:00:51.925Z,76.56
2018-01-07T09:01:54.380Z,76.55
2018-01-07T09:02:56.860Z,77.24
2018-01-07T09:03:59.316Z,76.47
2018-01-07T09:05:01.765Z,76.73
2018-01-07T09:06:04.238Z,76.33
2018-01-07T09:07:06.720Z,77.08
2018-01-07T09:08:09.171Z,76.40
2018-01-07T09:09:11.622Z,75.89
2018-01-07T09:10:14.092Z,75.88
2018-01-07T09:11:16.558Z,77.03
2018-01-07T09:12:19.025Z,75.29
2018-01-07T09:13:21.488Z,75.67
2018-01-07T09:14:23.938Z,75.41
2018-01-07T09:15:26.400Z,75.84
2018-01-07T09:16:28.868Z,75.41
2018-01-07T09:17:31.328Z,74.95
2018-01-07T09:18:33.791Z,75.04
2018-01-07T09:19:36.272Z,75.41
2018-01-07T09:20:38.721Z,74.47
2018-01-07T09:21:41.189Z,75.40
2018-01-07T09:22:43.660Z,74.24
2018-01-07T09:23:46.119Z,74.37
2018-01-07T09:24:48.579Z,76.22
2018-01-07T09:25:51.040Z,74.80
2018-01-07T09:26:53.500Z,74.80
2018-01-07T09:27:55.974Z,74.57
2018-01-07T09:28:58.436Z,74.61
2018-01-07T09:30:00.905Z,74.31
2018-01-07T09:31:03.369Z,74.29
2018-01-07T09:32:05.840Z,74.55
2018-01-07T09:33:08.305Z,73.96
2018-01-07T09:34:10.769Z,73.78
2018-01-07T09:35:13.232Z,74.87
2018-01-07T09:36:15.696Z,72.71
2018-01-07T09:37:18.165Z,73.34
2018-01-07T09:38:20.644Z,72.25
2018-01-07T09:39:23.116Z,70.96
2018-01-07T09:40:25.582Z,69.90
2018-01-07T09:41:28.038Z,66.93
2018-01-07T09:42:30.498Z,65.92
2018-01-07T09:43:32.959Z,64.75
2018-01-07T09:44:35.410Z,64.66
2018-01-07T09:45:37.872Z,60.59
2018-01-07T09:46:40.336Z,62.38
2018-01-07T09:47:42.787Z,62.27
2018-01-07T09:48:45.234Z,62.38
2018-01-07T09:49:47.700Z,62.59
2018-01-07T09:50:50.164Z,62.44
2018-01-07T09:51:52.630Z,61.71
2018-01-07T09:52:55.121Z,61.26
2018-01-07T09:53:57.898Z,61.09
2018-01-07T09:55:00.374Z,62.63
2018-01-07T09:56:02.827Z,63.60
2018-01-07T09:57:05.297Z,63.32
2018-01-07T09:58:07.760Z,63.37
2018-01-07T09:59:10.292Z,63.83
2018-01-07T10:00:12.747Z,64.74
2018-01-07T10:01:15.216Z,64.81
2018-01-07T10:02:17.685Z,64.04
2018-01-07T10:03:20.146Z,64.25
2018-01-07T10:04:22.624Z,64.22
2018-01-07T10:05:25.093Z,63.97
2018-01-07T10:06:27.553Z,64.54
2018-01-07T10:07:30.021Z,64.24
2018-01-07T10:08:32.551Z,63.33
2018-01-07T10:09:35.012Z,63.07
2018-01-07T10:10:37.481Z,62.16
2018-01-07T10:11:39.944Z,62.47
2018-01-07T10:12:42.408Z,63.53
2018-01-07T10:13:44.862Z,64.55
2018-01-07T10:14:47.326Z,64.95
2018-01-07T10:15:49.794Z,65.55
2018-01-07T10:16:52.242Z,65.80
2018-01-07T10:17:54.698Z,65.17
2018-01-07T10:18:57.173Z,65.56
2018-01-07T10:19:59.634Z,65.09
2018-01-07T10:21:02.118Z,64.29
2018-01-07T10:22:04.588Z,64.45
2018-01-07T10:23:07.071Z,64.73
2018-01-07T10:24:09.543Z,64.21
2018-01-07T10:25:12.327Z,64.09
2018-01-07T10:26:14.794Z,64.58
2018-01-07T10:27:17.264Z,65.31
2018-01-07T10:28:19.813Z,66.71
2018-01-07T10:29:22.284Z,67.19
2018-01-07T10:30:24.762Z,68.19
2018-01-07T10:31:27.228Z,67.92
2018-01-07T10:32:29.692Z,67.87
2018-01-07T10:33:32.157Z,68.14
2018-01-07T10:34:34.655Z,68.73
2018-01-07T10:35:37.111Z,68.61
2018-01-07T10:36:39.570Z,68.86
2018-01-07T10:37:42.024Z,69.23
2018-01-07T10:38:44.480Z,69.44
2018-01-07T10:39:46.953Z,68.88
2018-01-07T10:40:49.410Z,69.55
2018-01-07T10:41:51.878Z,68.42
2018-01-07T10:42:54.339Z,69.38
2018-01-07T10:43:56.804Z,69.45
2018-01-07T10:44:59.265Z,69.49
2018-01-07T10:46:01.727Z,69.34
2018-01-07T10:47:04.204Z,69.54
2018-01-07T10:48:06.668Z,68.96
2018-01-07T10:49:09.146Z,69.80
2018-01-07T10:50:11.627Z,69.14
2018-01-07T10:51:14.226Z,68.93
2018-01-07T10:52:16.742Z,68.89
2018-01-07T10:53:19.219Z,69.25
2018-01-07T10:54:21.678Z,69.38
2018-01-07T10:55:24.130Z,69.79
2018-01-07T10:56:26.630Z,69.17
2018-01-07T10:57:29.101Z,69.99
2018-01-07T10:58:31.567Z,70.43
2018-01-07T10:59:34.040Z,70.23
2018-01-07T11:00:42.053Z,70.75
2018-01-07T11:01:50.162Z,69.75
2018-01-07T11:02:52.624Z,71.05
2018-01-07T11:03:55.898Z,70.74
2018-01-07T11:04:58.364Z,70.15
2018-01-07T11:06:00.824Z,69.26
2018-01-07T11:07:03.278Z,69.70
2018-01-07T11:08:05.745Z,69.58
2018-01-07T11:09:08.258Z,69.36
2018-01-07T11:10:10.726Z,69.37
2018-01-07T11:11:13.177Z,70.02
2018-01-07T11:12:15.631Z,69.86
2018-01-07T11:13:18.101Z,70.59
2018-01-07T11:14:20.568Z,70.93
2018-01-07T11:15:23.030Z,70.72
2018-01-07T11:16:25.484Z,69.45
2018-01-07T11:17:27.934Z,69.59
2018-01-07T11:18:30.470Z,69.48
2018-01-07T11:19:32.940Z,69.99
2018-01-07T11:20:35.399Z,69.97
2018-01-07T11:21:37.853Z,70.08
2018-01-07T11:22:40.326Z,70.16
2018-01-07T11:23:42.802Z,70.85
2018-01-07T11:24:45.253Z,70.22
2018-01-07T11:25:47.720Z,71.44
2018-01-07T11:26:50.233Z,70.91
2018-01-07T11:27:52.705Z,70.51
2018-01-07T11:28:55.158Z,71.67
2018-01-07T11:29:57.642Z,71.52
2018-01-07T11:31:00.384Z,71.23
2018-01-07T11:32:02.841Z,71.46
2018-01-07T11:33:05.313Z,71.08
2018-01-07T11:34:07.792Z,70.52
2018-01-07T11:35:10.266Z,70.59
2018-01-07T11:36:12.745Z,70.24
2018-01-07T11:37:15.206Z,69.84
2018-01-07T11:38:17.693Z,69.45
2018-01-07T11:39:20.152Z,70.00
2018-01-07T11:40:22.628Z,69.77
2018-01-07T11:41:25.095Z,68.99
2018-01-07T11:42:27.562Z,68.54
2018-01-07T11:43:30.874Z,66.94
2018-01-07T11:44:33.326Z,67.79
2018-01-07T11:45:35.792Z,67.91
2018-01-07T11:46:38.250Z,66.22
2018-01-07T11:47:40.738Z,66.33
2018-01-07T11:48:43.213Z,67.09
2018-01-07T11:49:45.736Z,66.73
2018-01-07T11:50:48.195Z,66.04
2018-01-07T11:51:50.650Z,66.02
2018-01-07T11:52:53.102Z,65.79
2018-01-07T11:53:55.564Z,65.11
2018-01-07T11:54:58.232Z,65.85
2018-01-07T11:56:00.720Z,66.54
2018-01-07T11:57:03.175Z,66.19
2018-01-07T11:58:05.993Z,66.24
2018-01-07T11:59:08.464Z,66.24
2018-01-07T12:00:10.922Z,66.78
2018-01-07T12:01:13.386Z,67.50
2018-01-07T12:02:15.853Z,67.49
2018-01-07T12:03:18.313Z,67.26
2018-01-07T12:04:20.793Z,67.67
2018-01-07T12:05:23.251Z,68.60
2018-01-07T12:06:25.717Z,67.99
2018-01-07T12:07:28.200Z,68.63
2018-01-07T12:08:30.899Z,68.58
2018-01-07T12:09:33.407Z,68.40
2018-01-07T12:10:35.917Z,68.42
2018-01-07T12:11:38.476Z,68.78
2018-01-07T12:12:41.034Z,68.83
2018-01-07T12:13:43.500Z,68.59
2018-01-07T12:14:45.992Z,69.13
2018-01-07T12:15:48.452Z,69.39
2018-01-07T12:16:50.939Z,68.74
2018-01-07T12:17:53.408Z,68.77
2018-01-07T12:18:55.885Z,69.35
2018-01-07T12:19:58.404Z,67.95
2018-01-07T12:21:00.908Z,68.82
2018-01-07T12:22:03.385Z,68.87
2018-01-07T12:23:05.842Z,69.20
2018-01-07T12:24:08.323Z,69.00
2018-01-07T12:25:10.814Z,69.61
2018-01-07T12:26:13.284Z,70.33
2018-01-07T12:27:15.755Z,69.89
2018-01-07T12:28:18.224Z,69.53
2018-01-07T12:29:20.680Z,69.15
2018-01-07T12:30:23.177Z,69.68
2018-01-07T12:31:26.636Z,69.16
2018-01-07T12:32:29.278Z,69.96
2018-01-07T12:33:31.790Z,68.73
2018-01-07T12:34:34.272Z,69.76
2018-01-07T12:35:36.767Z,69.89
2018-01-07T12:36:39.311Z,69.88
2018-01-07T12:37:41.844Z,69.65
2018-01-07T12:38:44.332Z,69.05
2018-01-07T12:39:46.789Z,69.16
2018-01-07T12:40:49.284Z,70.11
2018-01-07T12:41:51.734Z,68.92
2018-01-07T12:42:54.948Z,69.97
2018-01-07T12:43:57.435Z,70.05
2018-01-07T12:44:59.946Z,69.52
2018-01-07T12:46:02.435Z,70.06
2018-01-07T12:47:04.941Z,69.77
2018-01-07T12:48:07.404Z,69.71
2018-01-07T12:49:09.918Z,69.89
2018-01-07T12:50:12.380Z,70.39
2018-01-07T12:51:14.904Z,69.18
2018-01-07T12:52:17.372Z,68.93
2018-01-07T12:53:20.314Z,68.95
2018-01-07T12:54:22.771Z,69.52
2018-01-07T12:55:25.866Z,69.82
2018-01-07T12:56:28.456Z,69.24
2018-01-07T12:57:30.947Z,69.41
2018-01-07T12:58:33.565Z,69.10
2018-01-07T12:59:36.144Z,69.40
2018-01-07T13:00:38.632Z,69.37
2018-01-07T13:01:41.162Z,69.05
2018-01-07T13:02:43.635Z,69.85
2018-01-07T13:03:46.106Z,69.91
2018-01-07T13:04:48.563Z,70.10
2018-01-07T13:05:51.014Z,70.20
2018-01-07T13:06:53.523Z,70.49
2018-01-07T13:07:56.053Z,69.54
2018-01-07T13:08:58.528Z,69.79
2018-01-07T13:10:01.554Z,69.56
2018-01-07T13:11:04.027Z,70.01
2018-01-07T13:12:06.546Z,70.53
2018-01-07T13:13:09.023Z,69.80
2018-01-07T13:14:11.528Z,69.05
2018-01-07T13:15:14.003Z,69.20
2018-01-07T13:16:16.479Z,69.32
2018-01-07T13:17:18.988Z,69.57
2018-01-07T13:18:21.515Z,69.39
2018-01-07T13:19:24.011Z,69.61
2018-01-07T13:20:26.497Z,69.60
2018-01-07T13:21:28.965Z,70.46
2018-01-07T13:22:31.479Z,69.88
2018-01-07T13:23:33.949Z,69.42
2018-01-07T13:24:36.506Z,70.10
2018-01-07T13:25:38.969Z,70.37